Home > Products > Valid Products > MTR

000
SAUS46 KMTR 010457
MTRMHS
METAR KMHS 010456Z AUTO 29003KT 10SM CLR 22/06 A3006 RMK AO2 SLP157
T02220061





000
SAUS46 KMTR 010357
MTRMHS
METAR KMHS 010356Z AUTO 00000KT 10SM CLR 23/05 A3004 RMK AO2 SLP154
T02330050





000
SAUS46 KMTR 010257
MTRMHS
METAR KMHS 010256Z AUTO 00000KT 10SM CLR 26/06 A3002 RMK AO2 SLP149
T02610056 53002





000
SAUS46 KMTR 010157
MTRMHS
METAR KMHS 010156Z AUTO 00000KT 10SM CLR 32/05 A3000 RMK AO2 SLP139
T03220050





000
SAUS46 KMTR 010058
MTRMHS
METAR KMHS 010056Z AUTO 00000KT 10SM CLR 33/06 A3000 RMK AO2 SLP139
T03280061





000
SAUS46 KMTR 312257
MTRMHS
METAR KMHS 312256Z AUTO 00000KT 10SM CLR 36/06 A3002 RMK AO2 SLP144
T03560061





000
SAUS46 KMTR 312157
MTRMHS
METAR KMHS 312156Z AUTO 10SM CLR 36/02 A3004 RMK AO2 SLP151
T03560017





000
SAUS46 KMTR 312057
MTRMHS
METAR KMHS 312056Z AUTO 10SM CLR 36/04 A3006 RMK AO2 SLP156
T03560039 58013





000
SAUS46 KMTR 311957
MTRMHS
METAR KMHS 311956Z AUTO 00000KT 10SM CLR 35/07 A3008 RMK AO2 SLP163
T03500067





000
SAUS46 KMTR 311857
MTRMHS
METAR KMHS 311856Z AUTO 00000KT 10SM CLR 33/10 A3010 RMK AO2 SLP168
T03280100





000
SAUS46 KMTR 311757
MTRMHS
METAR KMHS 311756Z AUTO 00000KT 10SM CLR 31/11 A3010 RMK AO2 SLP171
T03110106 10311 20122 58008





000
SAUS46 KMTR 311657
MTRMHS
METAR KMHS 311656Z AUTO 00000KT 10SM CLR 27/11 A3012 RMK AO2 SLP178
T02720106





000
SAUS46 KMTR 311557
MTRMHS
METAR KMHS 311556Z AUTO 00000KT 10SM CLR 23/13 A3012 RMK AO2 SLP184
T02280133





000
SAUS46 KMTR 311457
MTRMHS
METAR KMHS 311456Z AUTO 00000KT 10SM FEW120 17/11 A3013 RMK AO2
SLP186 T01720106 53002





000
SAUS46 KMTR 311357
MTRMHS
METAR KMHS 311356Z AUTO 00000KT 10SM CLR 13/08 A3012 RMK AO2 SLP190
T01330078





000
SAUS46 KMTR 311157
MTRMHS
METAR KMHS 311156Z AUTO 00000KT 10SM CLR 13/07 A3012 RMK AO2 SLP184
T01330067 10200 20128 55005





000
SAUS46 KMTR 311057
MTRMHS
METAR KMHS 311056Z AUTO 00000KT 10SM CLR 14/07 A3012 RMK AO2 SLP180
T01390067





000
SAUS46 KMTR 310957
MTRMHS
METAR KMHS 310956Z AUTO 00000KT 10SM CLR 16/07 A3013 RMK AO2 SLP185
T01560067





000
SAUS46 KMTR 310857
MTRMHS
METAR KMHS 310856Z AUTO 00000KT 10SM CLR 16/07 A3014 RMK AO2 SLP183
T01610067 56004





000
SAUS46 KMTR 310657
MTRMHS
METAR KMHS 310656Z AUTO 05003KT 10SM CLR 18/08 A3015 RMK AO2 SLP186
T01780078





000
SAUS46 KMTR 310559
MTRMHS
METAR KMHS 310556Z AUTO 00000KT 10SM CLR 19/07 A3015 RMK AO2 SLP188
T01940072 10300 20189 51013





000
SAUS46 KMTR 310457
MTRMHS
METAR KMHS 310456Z AUTO 07003KT 10SM SCT120 22/08 A3015 RMK AO2
SLP188 T02170078





000
SAUS46 KMTR 310357
MTRMHS
METAR KMHS 310356Z AUTO 00000KT 10SM CLR 23/08 A3013 RMK AO2 SLP183
T02280078





000
SAUS46 KMTR 310357
MTRMHS
METAR KMHS 310356Z AUTO 00000KT 10SM CLR 23/08 A3013 RMK AO2 SLP183
T02280078





000
SAUS46 KMTR 310257
MTRMHS
METAR KMHS 310256Z AUTO VRB04KT 10SM CLR 27/07 A3011 RMK AO2 SLP178
T02670067 51017





000
SAUS46 KMTR 310157
MTRMHS
METAR KMHS 310156Z AUTO VRB03KT 10SM CLR 27/08 A3010 RMK AO2 SLP181
T02670083





000
SAUS46 KMTR 310058
MTRMHS
METAR KMHS 310056Z AUTO VRB03KT 10SM CLR 28/08 A3007 RMK AO2 SLP169
T02780083





000
SAUS46 KMTR 302357
MTRMHS
METAR KMHS 302356Z AUTO VRB05KT 10SM CLR 31/08 A3005 RMK AO2 SLP163
T03060078 10361 20294 56011





000
SAUS46 KMTR 302257
MTRMHS
METAR KMHS 302256Z AUTO VRB04KT 10SM CLR 35/09 A3006 RMK AO2 SLP159
T03500089





000
SAUS46 KMTR 302157
MTRMHS
METAR KMHS 302156Z AUTO 10SM FEW120 31/09 A3008 RMK AO2 SLP170
T03060089





000
SAUS46 KMTR 302057
MTRMHS
METAR KMHS 302056Z AUTO VRB03KT 10SM CLR 36/07 A3009 RMK AO2 SLP166
T03610072 58012





000
SAUS46 KMTR 301957
MTRMHS
METAR KMHS 301956Z AUTO VRB03KT 10SM CLR 35/08 A3011 RMK AO2 SLP173
T03500078





000
SAUS46 KMTR 301858
MTRMHS
METAR KMHS 301856Z AUTO VRB03KT 10SM CLR 33/09 A3012 RMK AO2 SLP178
T03330094





000
SAUS46 KMTR 301757
MTRMHS
METAR KMHS 301756Z AUTO 00000KT 10SM CLR 32/10 A3013 RMK AO2 SLP180
T03170100 10317 20111 58006





000
SAUS46 KMTR 301657
MTRMHS
METAR KMHS 301656Z AUTO 00000KT 10SM CLR 28/08 A3014 RMK AO2 SLP183
T02830083





000
SAUS46 KMTR 301557
MTRMHS
METAR KMHS 301556Z AUTO 00000KT 10SM CLR 25/11 A3015 RMK AO2 SLP190
T02500106





000
SAUS46 KMTR 301457
MTRMHS
METAR KMHS 301456Z AUTO 00000KT 10SM CLR 19/09 A3015 RMK AO2 SLP191
T01940089 53001





000
SAUS46 KMTR 301257
MTRMHS
METAR KMHS 301256Z AUTO 00000KT 10SM CLR 13/04 A3014 RMK AO2 SLP193
T01330044





000
SAUS46 KMTR 301157
MTRMHS
METAR KMHS 301156Z AUTO 00000KT 10SM CLR 12/04 A3015 RMK AO2 SLP191
T01170044 10194 20117 58003





000
SAUS46 KMTR 301057
MTRMHS
METAR KMHS 301056Z AUTO 00000KT 10SM CLR 14/04 A3015 RMK AO2 SLP189
T01390039





000
SAUS46 KMTR 300957
MTRMHS
METAR KMHS 300956Z AUTO 00000KT 10SM CLR 14/04 A3016 RMK AO2 SLP190
T01390039





000
SAUS46 KMTR 300857
MTRMHS
METAR KMHS 300856Z AUTO 00000KT 10SM CLR 14/04 A3016 RMK AO2 SLP190
T01440039 55001





000
SAUS46 KMTR 300757
MTRMHS
METAR KMHS 300756Z AUTO 06004KT 10SM CLR 16/04 A3015 RMK AO2 SLP189
T01610044 403720122





000
SAUS46 KMTR 300657
MTRMHS
METAR KMHS 300656Z AUTO 06005KT 10SM CLR 18/04 A3016 RMK AO2 SLP190
T01780039





000
SAUS46 KMTR 300457
MTRMHS
METAR KMHS 300456Z AUTO 00000KT 10SM CLR 21/05 A3015 RMK AO2 SLP189
T02110050





000
SAUS46 KMTR 300359
MTRMHS
METAR KMHS 300356Z AUTO 00000KT 10SM CLR 23/06 A3012 RMK AO2 SLP180
T02280056





000
SAUS46 KMTR 300257
MTRMHS
METAR KMHS 300256Z AUTO VRB04KT 10SM CLR 27/04 A3012 RMK AO2 SLP181
T02720039 51008





000
SAUS46 KMTR 300157
MTRMHS
METAR KMHS 300156Z AUTO 00000KT 10SM CLR 26/08 A3012 RMK AO2 SLP187
T02560078





000
SAUS46 KMTR 300057
MTRMHS
METAR KMHS 300056Z AUTO VRB05KT 10SM SCT110 29/05 A3010 RMK AO2
SLP177 T02940050





000
SAUS46 KMTR 292257
MTRMHS
METAR KMHS 292256Z AUTO 00000KT 10SM CLR 36/04 A3008 RMK AO2 SLP164
T03610039





000
SAUS46 KMTR 292159
MTRMHS
METAR KMHS 292156Z AUTO 20003KT 10SM CLR 37/06 A3010 RMK AO2 SLP168
T03670061





000
SAUS46 KMTR 292058
MTRMHS
METAR KMHS 292056Z AUTO 00000KT 10SM CLR 36/08 A3012 RMK AO2 SLP175
T03560078 58018





000
SAUS46 KMTR 291959
MTRMHS
METAR KMHS 291956Z AUTO 00000KT 10SM CLR 34/09 A3014 RMK AO2 SLP183
T03390089





000
SAUS46 KMTR 291857
MTRMHS
METAR KMHS 291856Z AUTO 00000KT 10SM CLR 32/08 A3016 RMK AO2 SLP189
T03220083





000
SAUS46 KMTR 291757
MTRMHS
METAR KMHS 291756Z AUTO 00000KT 10SM CLR 30/05 A3018 RMK AO2 SLP194
T03000050 10300 20122 58006





000
SAUS46 KMTR 291657
MTRMHS
METAR KMHS 291656Z AUTO 00000KT 10SM CLR 28/07 A3019 RMK AO2 SLP197
T02780072





000
SAUS46 KMTR 291457
MTRMHS
METAR KMHS 291456Z AUTO 00000KT 10SM CLR 19/08 A3020 RMK AO2 SLP208
T01940083 53007





000
SAUS46 KMTR 291357
MTRMHS
METAR KMHS 291356Z AUTO 00000KT 10SM CLR 14/07 A3019 RMK AO2 SLP207
T01390067





000
SAUS46 KMTR 291257
MTRMHS
METAR KMHS 291256Z AUTO 07003KT 10SM CLR 14/06 A3018 RMK AO2 SLP204
T01440061





000
SAUS46 KMTR 291157
MTRMHS
METAR KMHS 291156Z AUTO 00000KT 10SM CLR 13/07 A3018 RMK AO2 SLP200
T01330067 10250 20133 55002





000
SAUS46 KMTR 290957
MTRMHS
METAR KMHS 290956Z AUTO 00000KT 10SM CLR 16/07 A3018 RMK AO2 SLP201
T01560072





000
SAUS46 KMTR 290857
MTRMHS
METAR KMHS 290856Z AUTO 00000KT 10SM CLR 17/08 A3018 RMK AO2 SLP196
T01720083 50005





000
SAUS46 KMTR 290757
MTRMHS
METAR KMHS 290756Z AUTO 00000KT 10SM CLR 18/09 A3018 RMK AO2 SLP196
T01780089 403670117





000
SAUS46 KMTR 290657
MTRMHS
METAR KMHS 290656Z AUTO 00000KT 10SM CLR 21/08 A3018 RMK AO2 SLP194
T02110083





000
SAUS46 KMTR 290557
MTRMHS
METAR KMHS 290556Z AUTO 00000KT 10SM CLR 25/08 A3017 RMK AO2 SLP188
T02500078 10344 20250 51019





    US Dept of Commerce
    National Oceanic and Atmospheric Administration
    National Weather Service
    1325 East West Highway
    Silver Spring, MD 20910
    Page Author: NWS Internet Services Team
Disclaimer
Information Quality
Credits
Glossary
Privacy Policy
Freedom of Information Act (FOIA)
About Us
Career Opportunities